createdAt,value
2023-04-15T00:00:26.184Z,35.60
2023-04-15T00:01:26.272Z,35.40
2023-04-15T00:02:26.459Z,36.80
2023-04-15T00:03:26.702Z,36.40
2023-04-15T00:04:26.656Z,35.70
2023-04-15T00:05:26.574Z,35.30
2023-04-15T00:06:26.695Z,36.70
2023-04-15T00:07:26.757Z,36.50
2023-04-15T00:08:26.867Z,35.50
2023-04-15T00:09:26.905Z,37.00
2023-04-15T00:10:27.023Z,36.70
2023-04-15T00:11:27.111Z,36.40
2023-04-15T00:12:27.178Z,37.20
2023-04-15T00:13:27.277Z,36.80
2023-04-15T00:14:27.349Z,37.00
2023-04-15T00:15:27.404Z,37.00
2023-04-15T00:16:27.597Z,36.60
2023-04-15T00:17:27.628Z,37.90
2023-04-15T00:18:27.684Z,37.40
2023-04-15T00:19:27.738Z,37.50
2023-04-15T00:20:27.844Z,36.90
2023-04-15T00:21:27.895Z,36.40
2023-04-15T00:22:28.073Z,37.70
2023-04-15T00:23:28.126Z,35.80
2023-04-15T00:24:28.166Z,37.30
2023-04-15T00:25:28.226Z,36.60
2023-04-15T00:26:28.312Z,37.50
2023-04-15T00:27:28.408Z,38.00
2023-04-15T00:28:28.541Z,38.20
2023-04-15T00:29:28.604Z,38.20
2023-04-15T00:30:28.697Z,37.10
2023-04-15T00:31:28.797Z,37.40
2023-04-15T00:32:28.835Z,37.50
2023-04-15T00:33:28.947Z,37.70
2023-04-15T00:34:29.020Z,37.70
2023-04-15T00:35:29.038Z,36.60
2023-04-15T00:36:29.155Z,37.10
2023-04-15T00:37:29.198Z,35.90
2023-04-15T00:38:29.324Z,36.90
2023-04-15T00:39:29.372Z,37.50
2023-04-15T00:40:29.466Z,37.30
2023-04-15T00:41:29.513Z,37.20
2023-04-15T00:42:29.620Z,39.40
2023-04-15T00:43:29.760Z,38.80
2023-04-15T00:44:29.850Z,37.90
2023-04-15T00:45:30.024Z,38.60
2023-04-15T05:40:15.232Z,24.00
2023-04-15T05:44:59.979Z,24.10
2023-04-15T06:30:05.215Z,17.90
2023-04-15T08:08:47.004Z,18.20
2023-04-15T08:09:44.982Z,18.00
2023-04-15T08:10:45.101Z,18.50
2023-04-15T08:11:45.129Z,17.40
2023-04-15T08:12:45.236Z,18.30
2023-04-15T08:13:45.402Z,18.70
2023-04-15T08:14:45.408Z,18.90
2023-04-15T08:15:45.517Z,19.10
2023-04-15T08:16:45.577Z,19.40
2023-04-15T08:17:45.674Z,19.00
2023-04-15T08:18:45.802Z,18.60
2023-04-15T08:19:45.835Z,17.40
2023-04-15T08:20:45.892Z,18.50
2023-04-15T08:21:45.988Z,18.20
2023-04-15T08:22:46.052Z,19.00
2023-04-15T08:23:46.127Z,18.20
2023-04-15T08:24:46.192Z,17.40
2023-04-15T08:25:46.285Z,18.70
2023-04-15T08:26:46.406Z,20.40
2023-04-15T08:27:46.464Z,20.00
2023-04-15T08:28:46.573Z,18.70
2023-04-15T08:29:46.686Z,19.00
2023-04-15T08:30:46.712Z,19.80
2023-04-15T08:31:46.912Z,19.00
2023-04-15T08:32:46.987Z,19.60
2023-04-15T08:33:46.984Z,19.40
2023-04-15T08:34:47.064Z,18.70
2023-04-15T08:35:47.216Z,19.50
2023-04-15T08:36:47.265Z,18.80
2023-04-15T08:37:47.309Z,20.20
2023-04-15T08:38:47.443Z,20.00
2023-04-15T08:39:47.475Z,19.90
2023-04-15T08:40:47.693Z,20.40
2023-04-15T08:41:47.737Z,19.30
2023-04-15T08:42:47.726Z,20.90
2023-04-15T08:43:47.818Z,20.10
2023-04-15T08:44:47.936Z,21.10
2023-04-15T08:45:47.940Z,21.10
2023-04-15T08:46:48.048Z,21.30
2023-04-15T08:47:55.001Z,21.10
2023-04-15T08:48:48.291Z,20.70
2023-04-15T08:49:48.293Z,20.40
2023-04-15T08:50:48.444Z,20.70
2023-04-15T08:51:48.457Z,19.90
2023-04-15T08:52:48.512Z,19.80
2023-04-15T08:53:48.637Z,21.60
2023-04-15T08:54:49.719Z,21.00
2023-04-15T08:55:48.788Z,21.60
2023-04-15T08:56:48.871Z,19.20
2023-04-15T08:57:48.925Z,19.60
2023-04-15T08:58:49.383Z,21.20
2023-04-15T08:59:49.055Z,22.20
2023-04-15T09:00:49.175Z,21.80
2023-04-15T09:01:49.245Z,21.90
2023-04-15T09:02:49.452Z,19.80
2023-04-15T09:03:49.538Z,21.40
2023-04-15T09:04:49.494Z,22.10
2023-04-15T09:05:50.453Z,21.30
2023-04-15T09:06:49.622Z,20.80
2023-04-15T09:07:50.729Z,21.10
2023-04-15T09:08:49.809Z,22.20
2023-04-15T09:09:49.849Z,21.80
2023-04-15T09:10:51.023Z,20.30
2023-04-15T09:11:50.075Z,20.80
2023-04-15T09:12:50.155Z,20.50
2023-04-15T09:13:50.224Z,20.60
2023-04-15T09:14:50.282Z,19.90
2023-04-15T09:15:50.393Z,20.80
2023-04-15T09:16:51.475Z,21.50
2023-04-15T09:17:50.531Z,21.60
2023-04-15T09:18:50.596Z,20.20
2023-04-15T09:19:50.715Z,20.70
2023-04-15T09:20:50.807Z,20.90
2023-04-15T09:21:50.860Z,20.10
2023-04-15T09:22:50.974Z,20.70
2023-04-15T09:23:51.101Z,20.90
2023-04-15T09:24:51.150Z,18.60
2023-04-15T09:25:51.191Z,19.00
2023-04-15T09:26:51.311Z,18.50
2023-04-15T09:27:51.384Z,19.30
2023-04-15T09:28:51.517Z,18.90
2023-04-15T09:29:51.603Z,19.90
2023-04-15T09:30:51.923Z,19.40
2023-04-15T09:31:51.758Z,19.80
2023-04-15T09:32:51.858Z,19.60
2023-04-15T09:33:51.935Z,18.70
2023-04-15T09:34:53.038Z,20.00
2023-04-15T09:35:52.120Z,20.00
2023-04-15T09:36:52.192Z,18.40
2023-04-15T09:37:52.268Z,19.10
2023-04-15T09:38:52.348Z,18.80
2023-04-15T09:39:52.465Z,18.60
2023-04-15T09:40:52.501Z,19.60
2023-04-15T09:41:52.555Z,19.70
2023-04-15T09:42:52.628Z,19.50
2023-04-15T09:43:52.706Z,19.50
2023-04-15T09:44:52.912Z,18.50
2023-04-15T09:45:52.912Z,19.50
2023-04-15T09:46:52.972Z,19.00
2023-04-15T09:47:53.139Z,19.20
2023-04-15T09:48:53.174Z,19.90
2023-04-15T09:49:54.732Z,19.50
2023-04-15T09:50:53.319Z,19.60
2023-04-15T09:52:04.513Z,18.70
2023-04-15T09:52:54.489Z,19.50
2023-04-15T09:53:53.574Z,19.40
2023-04-15T09:54:54.811Z,19.20
2023-04-15T09:55:53.773Z,20.90
2023-04-15T09:56:53.839Z,20.90
2023-04-15T09:57:53.922Z,19.90
2023-04-15T09:58:54.998Z,19.20
2023-04-15T09:59:55.220Z,17.70
2023-04-15T10:00:54.333Z,19.40
2023-04-15T10:01:54.374Z,17.20
2023-04-15T10:02:54.466Z,16.90
2023-04-15T10:03:54.583Z,18.60
2023-04-15T10:04:54.521Z,19.30
2023-04-15T10:05:54.668Z,17.60
2023-04-15T10:06:54.670Z,19.10
2023-04-15T10:07:54.744Z,18.40
2023-04-15T10:08:55.840Z,20.00
2023-04-15T10:09:56.432Z,19.30
2023-04-15T10:10:55.507Z,19.90
2023-04-15T10:11:55.106Z,18.40
2023-04-15T10:12:56.377Z,18.90
2023-04-15T10:13:56.262Z,18.70
2023-04-15T10:14:56.336Z,19.90
2023-04-15T10:15:56.453Z,21.30
2023-04-15T10:16:55.577Z,20.10
2023-04-15T10:17:55.793Z,19.90
2023-04-15T10:18:55.709Z,19.60
2023-04-15T10:19:55.840Z,22.20
2023-04-15T10:20:55.859Z,21.40
2023-04-15T10:21:56.124Z,22.70
2023-04-15T10:22:56.091Z,21.80
2023-04-15T10:23:57.152Z,20.40
2023-04-15T10:24:56.475Z,20.30
2023-04-15T10:25:56.287Z,22.30
2023-04-15T10:26:56.468Z,22.50
2023-04-15T10:27:57.618Z,21.00
2023-04-15T10:28:56.956Z,21.60
2023-04-15T10:29:56.611Z,20.30
2023-04-15T10:30:57.820Z,21.90
2023-04-15T10:31:56.799Z,23.00
2023-04-15T10:32:57.004Z,21.90
2023-04-15T10:33:57.166Z,21.70
2023-04-15T10:34:57.019Z,21.10
2023-04-15T10:35:57.142Z,22.00
2023-04-15T10:36:57.278Z,23.00
2023-04-15T10:37:57.321Z,21.40
2023-04-15T10:38:57.485Z,20.30
2023-04-15T10:39:57.489Z,19.90
2023-04-15T10:40:57.608Z,18.80
2023-04-15T10:41:58.632Z,20.00
2023-04-15T10:42:57.695Z,19.30
2023-04-15T10:43:57.932Z,20.60
2023-04-15T10:44:57.919Z,21.10
2023-04-15T10:45:58.029Z,18.10
2023-04-15T10:46:58.072Z,20.10
2023-04-15T10:47:58.276Z,19.40
2023-04-15T10:48:58.234Z,19.80
2023-04-15T10:49:58.300Z,20.20
2023-04-15T10:50:59.476Z,19.60
2023-04-15T10:51:58.509Z,20.70
2023-04-15T10:52:59.547Z,18.80
2023-04-15T10:53:58.838Z,19.90
2023-04-15T10:54:59.768Z,21.30
2023-04-15T10:55:58.884Z,17.70
2023-04-15T10:56:58.875Z,17.70
2023-04-15T10:57:59.009Z,16.60
2023-04-15T10:58:59.137Z,18.10
2023-04-15T10:59:59.183Z,18.50
2023-04-15T11:00:59.272Z,18.80
2023-04-15T11:01:59.598Z,18.40
2023-04-15T11:02:59.577Z,18.10
2023-04-15T11:03:59.657Z,18.20
2023-04-15T11:04:59.616Z,18.80
2023-04-15T11:06:00.727Z,16.80
2023-04-15T11:06:59.822Z,17.10
2023-04-15T11:07:59.926Z,19.70
2023-04-15T11:09:00.989Z,17.50
2023-04-15T11:10:00.151Z,18.90
2023-04-15T11:11:00.121Z,18.80
2023-04-15T11:12:00.359Z,18.60
2023-04-15T11:13:00.340Z,19.00
2023-04-15T11:14:01.666Z,19.00
2023-04-15T11:15:00.430Z,18.20
2023-04-15T11:16:00.544Z,18.90
2023-04-15T11:17:00.633Z,16.90
2023-04-15T11:18:00.856Z,18.00
2023-04-15T11:19:00.961Z,19.00
2023-04-15T11:20:00.819Z,18.60
2023-04-15T11:21:01.937Z,18.00
2023-04-15T11:22:02.024Z,18.00
2023-04-15T11:23:14.550Z,19.80
2023-04-15T11:24:02.949Z,17.70
2023-04-15T11:25:01.356Z,17.60
2023-04-15T11:26:01.638Z,18.40
2023-04-15T11:27:01.484Z,17.60
2023-04-15T11:28:01.566Z,18.10
2023-04-15T11:29:01.804Z,18.60
2023-04-15T11:30:01.760Z,18.50
2023-04-15T11:31:02.852Z,18.40
2023-04-15T11:32:01.978Z,17.70
2023-04-15T11:33:02.060Z,16.80
2023-04-15T11:34:02.098Z,15.60
2023-04-15T11:35:02.144Z,16.30
2023-04-15T11:36:03.277Z,16.80
2023-04-15T11:37:02.303Z,17.50
2023-04-15T11:38:03.361Z,17.50
2023-04-15T11:39:03.442Z,17.80
2023-04-15T11:40:02.560Z,17.70
2023-04-15T11:41:03.628Z,18.00
2023-04-15T11:42:02.675Z,17.40
2023-04-15T11:43:02.745Z,17.30
2023-04-15T11:44:03.927Z,17.50
2023-04-15T11:45:02.901Z,17.30
2023-04-15T11:46:03.206Z,17.20
2023-04-15T11:47:03.100Z,16.80
2023-04-15T11:48:04.228Z,16.40
2023-04-15T11:49:03.265Z,17.20
2023-04-15T11:50:03.360Z,17.40
2023-04-15T11:51:04.499Z,17.30
2023-04-15T11:52:03.530Z,18.10
2023-04-15T11:53:06.875Z,16.30
2023-04-15T11:54:04.211Z,15.90
2023-04-15T11:55:03.797Z,15.90
2023-04-15T11:56:03.886Z,15.40
2023-04-15T11:57:04.977Z,16.00
2023-04-15T11:58:04.031Z,16.20
2023-04-15T11:59:05.121Z,15.30
2023-04-15T12:00:05.256Z,16.20
2023-04-15T12:01:04.321Z,15.50
2023-04-15T12:02:04.694Z,16.60
2023-04-15T12:03:04.721Z,15.80
2023-04-15T12:04:05.267Z,16.10
2023-04-15T12:05:04.695Z,16.70
2023-04-15T12:06:04.804Z,15.50
2023-04-15T12:07:04.831Z,15.60
2023-04-15T12:08:04.862Z,17.10
2023-04-15T12:09:05.950Z,17.10
2023-04-15T12:10:06.014Z,16.80
2023-04-15T12:11:05.128Z,17.10
2023-04-15T12:12:05.182Z,16.90
2023-04-15T12:13:05.236Z,16.10
2023-04-15T12:14:05.629Z,17.10
2023-04-15T12:15:05.447Z,16.80
2023-04-15T12:16:06.575Z,16.10
2023-04-15T12:17:05.647Z,17.60
2023-04-15T12:18:05.742Z,17.20
2023-04-15T12:19:05.741Z,15.90
2023-04-15T12:20:05.830Z,17.40
2023-04-15T12:21:05.894Z,18.10
2023-04-15T12:22:05.988Z,16.70
2023-04-15T12:23:06.079Z,18.60
2023-04-15T12:24:07.319Z,18.00
2023-04-15T12:25:06.362Z,16.60
2023-04-15T12:26:07.460Z,16.30
2023-04-15T12:27:06.462Z,15.60
2023-04-15T12:28:06.509Z,16.10
2023-04-15T12:29:06.562Z,15.50
2023-04-15T12:30:07.852Z,17.30
2023-04-15T12:31:06.760Z,16.90
2023-04-15T12:32:06.861Z,14.30
2023-04-15T12:33:07.956Z,16.70
2023-04-15T12:34:07.185Z,17.10
2023-04-15T12:35:07.077Z,14.40
2023-04-15T12:36:07.130Z,15.90
2023-04-15T12:37:07.215Z,15.20
2023-04-15T12:38:07.280Z,15.80
2023-04-15T12:39:08.380Z,15.10
2023-04-15T12:40:07.513Z,15.90
2023-04-15T12:41:08.567Z,14.30
2023-04-15T12:42:08.681Z,14.00
2023-04-15T12:43:07.719Z,14.70
2023-04-15T12:44:08.820Z,15.00
2023-04-15T12:45:07.877Z,14.90
2023-04-15T12:46:08.026Z,15.70
2023-04-15T14:42:42.768Z,10.60
2023-04-15T14:43:43.716Z,10.60
2023-04-15T14:44:43.787Z,11.30
2023-04-15T14:45:45.423Z,11.20
2023-04-15T14:46:43.019Z,11.00
2023-04-15T14:47:43.106Z,11.10
2023-04-15T14:48:43.071Z,11.20
2023-04-15T14:49:43.151Z,10.90
2023-04-15T14:50:43.250Z,11.80
2023-04-15T14:51:43.323Z,11.30
2023-04-15T14:52:43.362Z,11.10
2023-04-15T14:53:43.492Z,11.50
2023-04-15T14:54:43.555Z,10.60
2023-04-15T14:55:44.603Z,10.40
2023-04-15T14:56:44.696Z,11.00
2023-04-15T14:57:43.846Z,11.70
2023-04-15T14:58:43.826Z,11.40
2023-04-15T14:59:44.981Z,11.70
2023-04-15T15:00:43.969Z,11.90
2023-04-15T15:01:44.131Z,10.20
2023-04-15T15:02:45.237Z,11.40
2023-04-15T15:03:44.468Z,10.50
2023-04-15T15:04:44.430Z,11.00
2023-04-15T15:05:44.523Z,11.70
2023-04-15T15:06:44.511Z,12.10
2023-04-15T15:07:44.517Z,11.90
2023-04-15T15:08:45.602Z,11.50
2023-04-15T15:09:45.680Z,10.90
2023-04-15T15:10:48.722Z,11.80
2023-04-15T15:11:44.840Z,12.20
2023-04-15T15:12:44.952Z,12.40
2023-04-15T15:13:46.097Z,11.10
2023-04-15T15:14:46.114Z,11.90
2023-04-15T15:15:45.220Z,12.70
2023-04-15T15:16:45.270Z,11.40
2023-04-15T15:17:45.396Z,11.10
2023-04-15T15:18:45.452Z,11.30
2023-04-15T15:19:45.538Z,11.50
2023-04-15T15:20:45.642Z,10.80
2023-04-15T15:21:46.700Z,11.50
2023-04-15T15:22:46.790Z,10.60
2023-04-15T15:23:45.910Z,10.30
2023-04-15T15:24:45.947Z,11.50
2023-04-15T15:25:46.020Z,11.00
2023-04-15T15:26:47.121Z,11.00
2023-04-15T15:27:46.217Z,11.00
2023-04-15T15:28:47.404Z,11.10
2023-04-15T15:29:50.540Z,11.60
2023-04-15T15:30:46.543Z,10.20
2023-04-15T15:31:46.621Z,10.50
2023-04-15T15:32:46.737Z,10.80
2023-04-15T15:33:46.798Z,10.50
2023-04-15T15:34:47.810Z,9.90
2023-04-15T15:35:46.998Z,9.80
2023-04-15T15:36:46.994Z,10.00
2023-04-15T15:37:47.058Z,10.30
2023-04-15T15:38:48.153Z,10.20
2023-04-15T15:39:47.194Z,10.40
2023-04-15T15:40:47.264Z,11.40
2023-04-15T15:41:47.369Z,10.20
2023-04-15T15:42:47.464Z,8.80
2023-04-15T15:43:47.544Z,10.00
2023-04-15T15:44:47.623Z,9.80
2023-04-15T15:45:48.716Z,9.80
2023-04-15T15:46:47.814Z,10.40
2023-04-15T15:47:47.986Z,9.90
2023-04-15T15:48:47.982Z,10.10
2023-04-15T15:49:48.013Z,10.50
2023-04-15T15:50:48.127Z,9.10
2023-04-15T15:51:48.137Z,8.30
2023-04-15T15:52:48.399Z,9.40
2023-04-15T15:53:48.319Z,8.10
2023-04-15T15:54:48.355Z,8.40
2023-04-15T15:55:48.436Z,9.10
2023-04-15T15:56:48.503Z,8.60
2023-04-15T15:57:48.667Z,9.70
2023-04-15T15:58:48.659Z,9.10
2023-04-15T15:59:51.157Z,8.60
2023-04-15T16:00:48.914Z,8.50
2023-04-15T16:01:48.975Z,8.10
2023-04-15T16:03:05.803Z,8.50
2023-04-15T16:03:50.147Z,8.50
2023-04-15T16:04:49.074Z,9.20
2023-04-15T16:05:49.199Z,8.50
2023-04-15T16:06:50.245Z,8.50
2023-04-15T16:07:50.328Z,8.50
2023-04-15T16:08:50.387Z,8.30
2023-04-15T16:09:49.498Z,8.20
2023-04-15T16:10:49.511Z,8.60
2023-04-15T16:11:49.632Z,8.10
2023-04-15T16:12:50.705Z,8.00
2023-04-15T16:13:49.807Z,7.80
2023-04-15T16:14:49.929Z,8.40
2023-04-15T16:15:49.965Z,8.40
2023-04-15T16:16:50.163Z,7.50
2023-04-15T16:17:50.159Z,7.70
2023-04-15T16:18:50.182Z,7.90
2023-04-15T16:19:55.559Z,8.40
2023-04-15T16:20:51.340Z,7.80
2023-04-15T16:21:50.449Z,7.50
2023-04-15T16:22:50.519Z,8.00
2023-04-15T16:23:50.599Z,7.70
2023-04-15T16:24:50.793Z,7.60
2023-04-15T16:25:50.745Z,7.30
2023-04-15T16:26:50.886Z,7.90
2023-04-15T16:28:01.494Z,7.70
2023-04-15T16:28:52.005Z,7.10
2023-04-15T16:29:51.118Z,7.00
2023-04-15T16:30:51.291Z,6.90
2023-04-15T16:31:52.314Z,8.10
2023-04-15T16:32:51.398Z,7.80
2023-04-15T16:33:51.510Z,7.30
2023-04-15T16:34:51.573Z,7.10
2023-04-15T16:35:51.615Z,7.00
2023-04-15T16:36:51.698Z,6.80
2023-04-15T16:37:51.750Z,7.00
2023-04-15T16:38:51.852Z,6.50
2023-04-15T16:39:51.900Z,7.40
2023-04-15T16:40:53.024Z,7.30
2023-04-15T16:41:52.109Z,7.00
2023-04-15T16:42:52.200Z,7.10
2023-04-15T16:43:52.292Z,7.20
2023-04-15T16:44:52.440Z,6.80
2023-04-15T16:45:53.489Z,7.40
2023-04-15T16:46:52.580Z,7.90
2023-04-15T16:47:52.636Z,7.50
2023-04-15T16:48:52.744Z,7.50
2023-04-15T16:49:52.826Z,7.00
2023-04-15T16:50:52.887Z,7.40
2023-04-15T16:51:54.551Z,7.50
2023-04-15T16:52:53.065Z,7.20
2023-04-15T16:53:54.242Z,8.20
2023-04-15T16:54:54.286Z,7.60
2023-04-15T16:55:54.344Z,8.00
2023-04-15T16:56:53.525Z,7.80
2023-04-15T16:58:03.321Z,7.40
2023-04-15T16:58:54.879Z,7.60
2023-04-15T16:59:53.665Z,7.70
2023-04-15T17:00:54.746Z,7.40
2023-04-15T17:01:55.041Z,7.70
2023-04-15T17:02:54.028Z,7.80
2023-04-15T17:03:56.048Z,7.20
2023-04-15T17:04:54.312Z,8.20
2023-04-15T17:05:55.188Z,7.90
2023-04-15T17:06:55.246Z,8.00
2023-04-15T17:07:54.372Z,8.00
2023-04-15T17:08:54.601Z,8.00
2023-04-15T17:09:55.558Z,8.30
2023-04-15T17:10:54.569Z,7.80
2023-04-15T17:11:54.644Z,8.20
2023-04-15T17:12:54.779Z,8.90
2023-04-15T17:13:55.804Z,9.20
2023-04-15T17:14:55.953Z,8.30
2023-04-15T17:15:55.906Z,8.60
2023-04-15T17:16:55.089Z,9.00
2023-04-15T17:17:55.145Z,8.80
2023-04-15T17:18:55.233Z,8.90
2023-04-15T17:19:55.298Z,8.70
2023-04-15T17:20:56.357Z,9.20
2023-04-15T17:21:55.440Z,8.30
2023-04-15T17:22:55.541Z,8.30
2023-04-15T17:23:56.608Z,8.50
2023-04-15T17:24:55.698Z,9.30
2023-04-15T17:25:55.732Z,9.30
2023-04-15T17:26:56.825Z,8.60
2023-04-15T17:27:55.914Z,9.50
2023-04-15T17:28:56.068Z,9.00
2023-04-15T17:29:56.128Z,9.20
2023-04-15T17:30:56.190Z,8.80
2023-04-15T17:31:56.230Z,10.10
2023-04-15T17:32:57.370Z,10.80
2023-04-15T17:34:08.755Z,10.10
2023-04-15T17:34:57.572Z,10.00
2023-04-15T17:35:56.606Z,9.90
2023-04-15T17:36:56.710Z,9.50
2023-04-15T17:37:56.802Z,9.60
2023-04-15T17:38:56.935Z,9.70
2023-04-15T17:39:56.972Z,9.90
2023-04-15T17:40:57.115Z,10.60
2023-04-15T17:41:57.118Z,10.70
2023-04-15T17:42:58.233Z,10.00
2023-04-15T17:43:57.306Z,11.00
2023-04-15T17:44:57.380Z,10.90
2023-04-15T17:45:58.665Z,12.70
2023-04-15T17:46:57.607Z,11.00
2023-04-15T17:47:57.823Z,10.30
2023-04-15T17:48:57.812Z,10.20
2023-04-15T17:49:57.788Z,11.10
2023-04-15T17:50:57.869Z,11.30
2023-04-15T17:51:58.940Z,11.40
2023-04-15T17:52:58.025Z,11.00
2023-04-15T17:53:59.084Z,10.40
2023-04-15T17:54:59.194Z,11.60
2023-04-15T17:55:58.245Z,11.10
2023-04-15T17:56:59.492Z,11.20
2023-04-15T17:57:58.428Z,11.00
2023-04-15T17:58:58.501Z,10.70
2023-04-15T17:59:58.583Z,10.50
2023-04-15T18:00:58.697Z,10.70
2023-04-15T18:01:58.904Z,12.40
2023-04-15T18:02:58.970Z,11.70
2023-04-15T18:03:59.222Z,11.40
2023-04-15T18:04:59.165Z,12.10
2023-04-15T18:05:59.104Z,11.00
2023-04-15T18:06:59.170Z,12.50
2023-04-15T18:07:59.271Z,12.30
2023-04-15T18:08:59.356Z,12.50
2023-04-15T18:09:59.487Z,11.00
2023-04-15T18:10:59.512Z,12.20
2023-04-15T18:11:59.594Z,11.20
2023-04-15T18:12:59.693Z,10.80
2023-04-15T18:13:59.776Z,11.50
2023-04-15T18:14:59.865Z,10.70
2023-04-15T18:15:59.916Z,11.00
2023-04-15T18:17:00.009Z,10.90
2023-04-15T18:18:00.213Z,11.40
2023-04-15T18:19:00.153Z,11.60
2023-04-15T18:20:00.284Z,11.10
2023-04-15T18:21:00.346Z,12.00
2023-04-15T18:22:01.434Z,12.10
2023-04-15T18:23:00.507Z,11.20
2023-04-15T18:24:01.642Z,11.80
2023-04-15T18:25:00.726Z,11.00
2023-04-15T18:26:00.790Z,11.50
2023-04-15T18:27:01.917Z,11.80
2023-04-15T18:28:00.907Z,11.40
2023-04-15T18:29:02.028Z,11.40
2023-04-15T18:30:01.088Z,12.10
2023-04-15T18:31:01.163Z,11.60
2023-04-15T18:32:01.251Z,12.50
2023-04-15T18:33:01.339Z,12.90
2023-04-15T18:34:01.394Z,11.90
2023-04-15T18:35:01.493Z,12.60
2023-04-15T18:36:01.577Z,12.50
2023-04-15T18:37:01.702Z,12.40
2023-04-15T18:38:01.825Z,11.20
2023-04-15T18:39:01.876Z,12.00
2023-04-15T18:40:01.909Z,12.30
2023-04-15T18:41:02.000Z,13.80
2023-04-15T18:42:02.095Z,12.40
2023-04-15T18:43:02.183Z,13.00
2023-04-15T18:44:02.291Z,11.50
2023-04-15T18:45:02.345Z,12.50
2023-04-15T18:46:02.432Z,12.10
